Terminal Aerodrome Forecast
Issued by NWS

Home | Current Version | Previous Version | Text Only | Print | Product List | Glossary On
Versions: 1 2 3 4 5 6 7 8 9 10 11 12 13 14 15 16 17 18 19 20 21 22
000
FTUS42 KILM 240311 AAA
TAFCRE
TAF AMD
KCRE 240311Z 2403/2424 02010G17KT P6SM VCTS BKN020CB
      TEMPO 2403/2407 2SM -TSRA BKN015CB
     FM240700 25008KT P6SM -SHRA VCTS BKN040CB
     FM240900 25008KT P6SM VCSH SCT025 BKN100
      TEMPO 2413/2417 BKN025
     FM241700 18004KT 4SM SHRA VCTS BKN040CB=

USA.gov is the U.S. government's official web portal to all federal, state and local government web resources and services.